createdAt,value
2018-11-20T00:00:58.410Z,941.58
2018-11-20T00:01:58.311Z,941.79
2018-11-20T00:02:58.207Z,941.57
2018-11-20T00:03:58.105Z,941.58
2018-11-20T00:04:58.012Z,941.49
2018-11-20T00:05:57.893Z,941.19
2018-11-20T00:06:57.790Z,941.50
2018-11-20T00:07:57.688Z,941.49
2018-11-20T00:08:57.581Z,941.42
2018-11-20T00:09:57.496Z,941.39
2018-11-20T00:10:57.373Z,941.42
2018-11-20T00:11:57.270Z,941.48
2018-11-20T00:12:57.167Z,941.39
2018-11-20T00:13:57.173Z,941.35
2018-11-20T00:14:56.979Z,941.31
2018-11-20T00:15:56.854Z,941.43
2018-11-20T00:16:56.750Z,941.26
2018-11-20T00:17:56.643Z,941.45
2018-11-20T00:18:56.545Z,941.19
2018-11-20T00:19:56.455Z,941.19
2018-11-20T00:20:56.333Z,941.23
2018-11-20T00:21:56.232Z,941.12
2018-11-20T00:22:56.127Z,941.11
2018-11-20T00:23:56.019Z,941.08
2018-11-20T00:24:55.934Z,941.15
2018-11-20T00:25:55.813Z,941.12
2018-11-20T00:26:55.709Z,941.06
2018-11-20T00:27:55.609Z,941.04
2018-11-20T00:28:55.504Z,941.00
2018-11-20T00:29:55.414Z,940.97
2018-11-20T00:30:55.292Z,940.90
2018-11-20T00:31:55.189Z,940.86
2018-11-20T00:32:55.083Z,940.87
2018-11-20T00:33:54.981Z,940.98
2018-11-20T00:34:54.890Z,940.78
2018-11-20T00:35:54.773Z,940.86
2018-11-20T00:36:54.665Z,940.82
2018-11-20T00:37:54.571Z,940.78
2018-11-20T00:38:54.464Z,940.88
2018-11-20T00:39:54.370Z,940.80
2018-11-20T00:40:54.253Z,940.84
2018-11-20T00:41:54.150Z,940.74
2018-11-20T00:42:54.043Z,940.89
2018-11-20T00:43:53.943Z,940.84
2018-11-20T00:44:53.853Z,940.79
2018-11-20T00:45:53.730Z,940.69
2018-11-20T00:46:53.627Z,940.84
2018-11-20T00:47:53.528Z,940.76
2018-11-20T00:48:53.423Z,940.57
2018-11-20T00:49:53.335Z,940.62
2018-11-20T00:50:53.211Z,940.44
2018-11-20T00:51:53.112Z,940.66
2018-11-20T00:52:53.005Z,940.61
2018-11-20T00:53:52.900Z,940.40
2018-11-20T00:54:52.812Z,940.52
2018-11-20T00:55:52.698Z,940.32
2018-11-20T00:56:52.887Z,940.33
2018-11-20T00:57:52.488Z,940.30
2018-11-20T00:58:52.383Z,940.58
2018-11-20T00:59:52.296Z,940.26
2018-11-20T01:00:52.177Z,940.26
2018-11-20T01:01:52.072Z,940.45
2018-11-20T01:02:51.965Z,940.31
2018-11-20T01:03:51.972Z,940.26
2018-11-20T01:04:51.776Z,940.21
2018-11-20T01:05:51.655Z,940.13
2018-11-20T01:06:51.553Z,940.16
2018-11-20T01:07:51.446Z,940.20
2018-11-20T01:08:51.344Z,939.95
2018-11-20T01:09:51.268Z,940.16
2018-11-20T01:10:51.237Z,940.01
2018-11-20T01:11:51.033Z,939.90
2018-11-20T01:12:51.861Z,939.89
2018-11-20T01:13:50.824Z,939.77
2018-11-20T01:14:50.720Z,939.89
2018-11-20T01:15:50.634Z,939.72
2018-11-20T01:16:50.512Z,939.77
2018-11-20T01:17:50.504Z,939.75
2018-11-20T01:18:50.307Z,939.76
2018-11-20T01:19:50.204Z,939.74
2018-11-20T01:20:50.114Z,939.59
2018-11-20T01:21:49.989Z,939.65
2018-11-20T01:22:49.897Z,939.71
2018-11-20T01:23:49.786Z,939.77
2018-11-20T01:24:49.785Z,939.58
2018-11-20T01:25:49.593Z,939.55
2018-11-20T01:26:49.476Z,939.43
2018-11-20T01:27:49.372Z,939.73
2018-11-20T01:28:49.265Z,939.48
2018-11-20T01:29:49.163Z,939.43
2018-11-20T01:30:49.182Z,939.44
2018-11-20T01:31:48.955Z,939.56
2018-11-20T01:32:48.853Z,939.67
2018-11-20T01:33:48.748Z,939.69
2018-11-20T01:34:48.650Z,939.52
2018-11-20T01:35:48.554Z,939.52
2018-11-20T01:36:48.435Z,939.38
2018-11-20T01:37:48.329Z,939.55
2018-11-20T01:38:48.334Z,939.56
2018-11-20T01:39:48.124Z,939.69
2018-11-20T01:40:48.037Z,939.62
2018-11-20T01:41:47.914Z,939.68
2018-11-20T01:42:47.814Z,939.73
2018-11-20T01:43:47.713Z,939.81
2018-11-20T01:44:47.599Z,939.71
2018-11-20T01:45:47.573Z,939.84
2018-11-20T01:46:47.401Z,939.79
2018-11-20T01:47:47.294Z,939.94
2018-11-20T01:48:47.187Z,939.70
2018-11-20T01:49:47.085Z,939.86
2018-11-20T01:50:46.997Z,939.74
2018-11-20T01:51:46.882Z,939.85
2018-11-20T01:52:46.778Z,939.93
2018-11-20T01:53:46.669Z,939.83
2018-11-20T01:54:46.565Z,939.93
2018-11-20T01:55:46.481Z,940.19
2018-11-20T01:56:46.360Z,939.97
2018-11-20T01:57:46.257Z,939.86
2018-11-20T01:58:46.163Z,939.92
2018-11-20T01:59:46.049Z,939.87
2018-11-20T02:00:45.966Z,939.88
2018-11-20T02:01:45.837Z,939.82
2018-11-20T02:02:45.736Z,940.13
2018-11-20T02:03:45.632Z,939.89
2018-11-20T02:04:45.531Z,939.92
2018-11-20T02:05:45.441Z,939.94
2018-11-20T02:06:45.320Z,939.82
2018-11-20T02:07:45.216Z,939.83
2018-11-20T02:08:45.118Z,940.05
2018-11-20T02:09:45.009Z,939.70
2018-11-20T02:10:44.926Z,939.81
2018-11-20T02:11:44.803Z,939.81
2018-11-20T02:12:44.696Z,939.99
2018-11-20T02:13:44.596Z,940.01
2018-11-20T02:14:44.492Z,939.84
2018-11-20T02:15:44.405Z,939.70
2018-11-20T02:16:44.291Z,939.71
2018-11-20T02:17:44.178Z,939.66
2018-11-20T02:18:44.077Z,939.85
2018-11-20T02:19:43.972Z,939.90
2018-11-20T02:20:43.882Z,939.80
2018-11-20T02:21:43.768Z,939.93
2018-11-20T02:22:43.665Z,939.94
2018-11-20T02:23:43.556Z,939.72
2018-11-20T02:24:43.452Z,939.83
2018-11-20T02:25:43.366Z,939.79
2018-11-20T02:26:43.244Z,939.67
2018-11-20T02:27:43.143Z,939.55
2018-11-20T02:28:43.037Z,939.93
2018-11-20T02:29:42.934Z,939.55
2018-11-20T02:30:42.845Z,939.54
2018-11-20T02:31:42.724Z,939.55
2018-11-20T02:32:42.626Z,939.48
2018-11-20T02:33:42.519Z,939.54
2018-11-20T02:34:42.415Z,939.50
2018-11-20T02:35:42.327Z,939.44
2018-11-20T02:36:42.208Z,939.61
2018-11-20T02:37:42.105Z,939.54
2018-11-20T02:38:41.998Z,939.53
2018-11-20T02:39:41.900Z,939.54
2018-11-20T02:40:41.806Z,939.70
2018-11-20T02:41:41.689Z,939.54
2018-11-20T02:42:41.582Z,939.60
2018-11-20T02:43:41.483Z,939.61
2018-11-20T02:44:41.378Z,939.59
2018-11-20T02:45:41.294Z,939.57
2018-11-20T02:46:41.175Z,939.58
2018-11-20T02:47:41.063Z,939.87
2018-11-20T02:48:40.959Z,939.77
2018-11-20T02:49:40.857Z,939.66
2018-11-20T02:50:40.774Z,939.63
2018-11-20T02:51:40.649Z,939.64
2018-11-20T02:52:40.547Z,939.61
2018-11-20T02:53:40.441Z,939.56
2018-11-20T02:54:40.341Z,939.58
2018-11-20T02:55:40.252Z,939.69
2018-11-20T02:56:40.132Z,939.58
2018-11-20T02:57:40.031Z,939.64
2018-11-20T02:58:39.926Z,939.66
2018-11-20T02:59:39.821Z,939.60
2018-11-20T03:00:39.730Z,939.69
2018-11-20T03:01:39.713Z,939.67
2018-11-20T03:02:39.515Z,939.55
2018-11-20T03:03:39.462Z,939.69
2018-11-20T03:04:39.297Z,939.56
2018-11-20T03:05:39.201Z,939.69
2018-11-20T03:06:39.113Z,939.52
2018-11-20T03:07:38.987Z,939.53
2018-11-20T03:08:39.008Z,939.56
2018-11-20T03:09:38.782Z,939.58
2018-11-20T03:10:38.678Z,939.76
2018-11-20T03:11:38.593Z,939.62
2018-11-20T03:12:38.472Z,939.51
2018-11-20T03:13:38.368Z,939.50
2018-11-20T03:14:38.264Z,939.48
2018-11-20T03:15:38.266Z,939.51
2018-11-20T03:16:38.073Z,939.51
2018-11-20T03:17:37.950Z,939.71
2018-11-20T03:18:37.846Z,939.60
2018-11-20T03:19:37.747Z,939.47
2018-11-20T03:20:37.642Z,939.62
2018-11-20T03:21:37.553Z,939.54
2018-11-20T03:22:37.535Z,939.54
2018-11-20T03:23:37.328Z,939.57
2018-11-20T03:24:37.227Z,939.46
2018-11-20T03:25:37.120Z,939.16
2018-11-20T03:26:37.035Z,939.36
2018-11-20T03:27:36.933Z,939.25
2018-11-20T03:28:36.808Z,939.24
2018-11-20T03:29:36.813Z,939.17
2018-11-20T03:30:36.603Z,939.35
2018-11-20T03:31:36.514Z,939.27
2018-11-20T03:32:36.395Z,939.21
2018-11-20T03:33:36.290Z,939.34
2018-11-20T03:34:36.190Z,939.28
2018-11-20T03:35:36.086Z,939.22
2018-11-20T03:36:36.096Z,939.39
2018-11-20T03:37:35.878Z,939.30
2018-11-20T03:38:35.777Z,939.30
2018-11-20T03:39:35.670Z,939.46
2018-11-20T03:40:35.569Z,939.32
2018-11-20T03:41:35.480Z,939.35
2018-11-20T03:42:35.366Z,939.53
2018-11-20T03:43:35.359Z,939.34
2018-11-20T03:44:35.153Z,939.49
2018-11-20T03:45:35.062Z,939.39
2018-11-20T03:46:34.963Z,939.32
2018-11-20T03:47:34.845Z,939.42
2018-11-20T03:48:34.737Z,939.27
2018-11-20T03:49:34.632Z,939.40
2018-11-20T03:50:34.633Z,939.39
2018-11-20T03:51:34.443Z,939.41
2018-11-20T03:52:34.325Z,939.44
2018-11-20T03:53:34.223Z,939.51
2018-11-20T03:54:34.133Z,939.23
2018-11-20T03:55:34.015Z,939.30
2018-11-20T03:56:33.923Z,939.12
2018-11-20T03:57:33.905Z,939.25
2018-11-20T03:58:33.700Z,939.17
2018-11-20T03:59:33.597Z,939.18
2018-11-20T04:00:33.494Z,939.16
2018-11-20T04:01:33.406Z,939.23
2018-11-20T04:02:33.292Z,939.21
2018-11-20T04:03:33.184Z,939.47
2018-11-20T04:04:33.192Z,939.37
2018-11-20T04:05:32.977Z,939.27
2018-11-20T04:06:32.893Z,939.31
2018-11-20T04:07:32.768Z,939.19
2018-11-20T04:08:32.668Z,939.21
2018-11-20T04:09:32.565Z,939.17
2018-11-20T04:10:32.460Z,939.26
2018-11-20T04:11:32.371Z,939.14
2018-11-20T04:12:32.255Z,939.16
2018-11-20T04:13:32.149Z,939.02
2018-11-20T04:14:32.044Z,939.11
2018-11-20T04:15:31.944Z,939.14
2018-11-20T04:16:31.854Z,939.11
2018-11-20T04:17:31.735Z,939.06
2018-11-20T04:18:31.736Z,939.06
2018-11-20T04:19:31.531Z,939.14
2018-11-20T04:20:31.422Z,939.10
2018-11-20T04:21:31.337Z,939.19
2018-11-20T04:22:31.220Z,939.16
2018-11-20T04:23:31.119Z,939.13
2018-11-20T04:24:31.008Z,939.19
2018-11-20T04:25:30.907Z,939.14
2018-11-20T04:26:30.816Z,939.11
2018-11-20T04:27:30.700Z,939.04
2018-11-20T04:28:30.596Z,939.39
2018-11-20T04:29:30.490Z,939.36
2018-11-20T04:30:30.387Z,939.11
2018-11-20T04:31:30.300Z,939.40
2018-11-20T04:32:30.182Z,939.15
2018-11-20T04:33:30.081Z,939.21
2018-11-20T04:34:29.983Z,939.25
2018-11-20T04:35:29.869Z,939.23
2018-11-20T04:36:29.782Z,939.23
2018-11-20T04:37:29.667Z,939.07
2018-11-20T04:38:29.558Z,939.24
2018-11-20T04:39:29.455Z,939.24
2018-11-20T04:40:29.355Z,939.18
2018-11-20T04:41:29.264Z,939.25
2018-11-20T04:42:29.149Z,939.31
2018-11-20T04:43:29.042Z,939.18
2018-11-20T04:44:28.938Z,939.19
2018-11-20T04:45:28.837Z,939.20
2018-11-20T04:46:28.752Z,939.18
2018-11-20T04:47:28.625Z,939.15
2018-11-20T04:48:28.523Z,939.22
2018-11-20T04:49:28.450Z,939.16
2018-11-20T04:50:28.315Z,939.06
2018-11-20T04:51:28.213Z,939.06
2018-11-20T04:52:28.123Z,939.09
2018-11-20T04:53:28.007Z,939.19
2018-11-20T04:54:27.903Z,939.02
2018-11-20T04:55:27.796Z,939.16
2018-11-20T04:56:27.696Z,939.16
2018-11-20T04:57:27.611Z,939.13
2018-11-20T04:58:27.485Z,939.15
2018-11-20T04:59:27.386Z,939.14
2018-11-20T05:00:27.283Z,939.16
2018-11-20T05:01:27.177Z,939.25
2018-11-20T05:02:27.087Z,939.16
2018-11-20T05:03:26.971Z,939.17
2018-11-20T05:04:26.864Z,939.08
2018-11-20T05:05:26.761Z,939.05
2018-11-20T05:06:26.693Z,939.09
2018-11-20T05:07:26.576Z,939.11
2018-11-20T05:08:26.457Z,939.10
2018-11-20T05:09:26.348Z,939.14
2018-11-20T05:10:26.244Z,939.08
2018-11-20T05:11:26.144Z,939.11
2018-11-20T05:12:26.051Z,939.31
2018-11-20T05:13:26.013Z,939.21
2018-11-20T05:14:25.832Z,939.00
2018-11-20T05:15:25.724Z,939.07
2018-11-20T05:16:25.623Z,938.99
2018-11-20T05:17:25.533Z,938.91
2018-11-20T05:18:25.416Z,939.06
2018-11-20T05:19:25.313Z,938.91
2018-11-20T05:20:25.206Z,939.03
2018-11-20T05:21:25.108Z,938.98
2018-11-20T05:22:25.019Z,939.14
2018-11-20T05:23:24.899Z,939.03
2018-11-20T05:24:24.796Z,939.06
2018-11-20T05:25:24.690Z,939.01
2018-11-20T05:26:24.588Z,939.18
2018-11-20T05:27:24.507Z,938.92
2018-11-20T05:28:24.378Z,938.97
2018-11-20T05:29:24.275Z,938.97
2018-11-20T05:30:24.171Z,939.24
2018-11-20T05:31:24.070Z,939.05
2018-11-20T05:32:23.980Z,938.98
2018-11-20T05:33:23.866Z,939.09
2018-11-20T05:34:23.760Z,938.87
2018-11-20T05:35:23.658Z,938.96
2018-11-20T05:36:23.550Z,939.20
2018-11-20T05:37:23.466Z,939.23
2018-11-20T05:38:23.348Z,939.12
2018-11-20T05:39:23.243Z,939.03
2018-11-20T05:40:23.192Z,939.23
2018-11-20T05:41:23.032Z,939.02
2018-11-20T05:42:22.950Z,939.07
2018-11-20T05:43:22.831Z,938.91
2018-11-20T05:44:22.720Z,939.09
2018-11-20T05:45:22.622Z,938.99
2018-11-20T05:46:22.512Z,938.97
2018-11-20T05:47:22.429Z,939.10
2018-11-20T05:48:22.417Z,938.86
2018-11-20T05:49:22.208Z,939.00
2018-11-20T05:50:22.100Z,938.98
2018-11-20T05:51:22.002Z,939.08
2018-11-20T05:52:21.911Z,939.04
2018-11-20T05:53:21.790Z,939.09
2018-11-20T05:54:21.686Z,939.05
2018-11-20T05:55:21.686Z,939.19
2018-11-20T05:56:21.478Z,939.21
2018-11-20T05:57:21.391Z,939.31
2018-11-20T05:58:21.274Z,939.06
2018-11-20T05:59:21.173Z,939.11
2018-11-20T06:00:21.069Z,939.34
2018-11-20T06:01:20.967Z,939.42
2018-11-20T06:02:20.874Z,939.16
2018-11-20T06:03:20.763Z,939.28
2018-11-20T06:04:20.658Z,939.31
2018-11-20T06:05:20.547Z,939.31
2018-11-20T06:06:20.451Z,939.15
2018-11-20T06:07:20.359Z,939.06
2018-11-20T06:08:20.236Z,939.17
2018-11-20T06:09:20.133Z,939.16
2018-11-20T06:10:20.030Z,939.08
2018-11-20T06:11:19.927Z,939.15
2018-11-20T06:12:19.841Z,939.20
2018-11-20T06:13:19.721Z,939.16
2018-11-20T06:14:19.616Z,939.13
2018-11-20T06:15:19.513Z,939.11
2018-11-20T06:16:19.413Z,939.28
2018-11-20T06:17:19.322Z,939.19
2018-11-20T06:18:19.209Z,939.11
2018-11-20T06:19:19.107Z,939.36
2018-11-20T06:20:18.994Z,939.15
2018-11-20T06:21:18.893Z,939.37
2018-11-20T06:22:18.804Z,939.41
2018-11-20T06:23:18.690Z,939.35
2018-11-20T06:24:18.886Z,939.27
2018-11-20T06:25:18.479Z,939.19
2018-11-20T06:26:18.374Z,939.58
2018-11-20T06:27:18.285Z,939.32
2018-11-20T06:28:18.168Z,939.19
2018-11-20T06:29:18.182Z,939.10
2018-11-20T06:30:17.959Z,939.07
2018-11-20T06:31:17.970Z,939.05
2018-11-20T06:32:17.768Z,939.09
2018-11-20T06:33:17.648Z,939.01
2018-11-20T06:34:17.582Z,939.01
2018-11-20T06:35:17.441Z,938.99
2018-11-20T06:36:17.336Z,938.97
2018-11-20T06:37:17.235Z,939.09
2018-11-20T06:38:17.254Z,938.97
2018-11-20T06:39:17.031Z,939.00
2018-11-20T06:40:16.920Z,939.00
2018-11-20T06:41:16.871Z,938.97
2018-11-20T06:42:16.714Z,938.82
2018-11-20T06:43:16.629Z,938.88
2018-11-20T06:44:16.506Z,938.78
2018-11-20T06:45:16.503Z,939.23
2018-11-20T06:46:16.306Z,938.88
2018-11-20T06:47:16.262Z,938.89
2018-11-20T06:48:16.108Z,938.84
2018-11-20T06:49:16.012Z,938.95
2018-11-20T06:50:15.884Z,938.81
2018-11-20T06:51:15.785Z,938.73
2018-11-20T06:52:15.784Z,938.62
2018-11-20T06:53:15.747Z,938.70
2018-11-20T06:54:15.475Z,938.90
2018-11-20T06:55:15.381Z,938.76
2018-11-20T06:56:15.261Z,938.84
2018-11-20T06:57:15.221Z,938.83
2018-11-20T06:58:15.166Z,938.91
2018-11-20T06:59:14.951Z,938.76
2018-11-20T07:00:14.848Z,938.80
2018-11-20T07:01:14.743Z,939.02
2018-11-20T07:02:14.641Z,938.72
2018-11-20T07:03:14.563Z,938.73
2018-11-20T07:04:14.432Z,938.71
2018-11-20T07:05:14.331Z,938.76
2018-11-20T07:06:14.333Z,938.77
2018-11-20T07:07:14.178Z,938.74
2018-11-20T07:08:14.208Z,938.69
2018-11-20T07:09:13.914Z,938.86
2018-11-20T07:10:13.814Z,938.71
2018-11-20T07:11:13.712Z,938.69
2018-11-20T07:12:13.743Z,938.75
2018-11-20T07:13:13.516Z,938.63
2018-11-20T07:14:13.399Z,938.78
2018-11-20T07:15:13.353Z,938.75
2018-11-20T07:16:13.433Z,938.74
2018-11-20T07:17:13.086Z,938.71
2018-11-20T07:18:13.001Z,938.93
2018-11-20T07:19:12.879Z,938.78
2018-11-20T07:20:12.779Z,938.71
2018-11-20T07:21:12.670Z,938.86
2018-11-20T07:22:12.570Z,938.68
2018-11-20T07:23:12.481Z,938.81
2018-11-20T07:24:12.402Z,938.69
2018-11-20T07:25:12.272Z,938.60
2018-11-20T07:26:12.160Z,938.49
2018-11-20T07:27:12.052Z,938.60
2018-11-20T07:28:11.961Z,938.50
2018-11-20T07:29:11.841Z,938.66
2018-11-20T07:30:11.830Z,938.25
2018-11-20T07:31:11.702Z,938.47
2018-11-20T07:32:11.530Z,938.33
2018-11-20T07:33:11.447Z,938.13
2018-11-20T07:34:11.339Z,938.11
2018-11-20T07:35:11.224Z,938.19
2018-11-20T07:36:11.163Z,938.04
2018-11-20T07:37:11.155Z,938.16
2018-11-20T07:38:10.924Z,938.36
2018-11-20T07:39:10.812Z,938.39
2018-11-20T07:40:10.704Z,938.39
2018-11-20T07:41:10.600Z,938.65
2018-11-20T07:42:10.495Z,938.70
2018-11-20T07:43:10.471Z,938.48
2018-11-20T07:44:10.307Z,938.58
2018-11-20T07:45:10.190Z,938.32
2018-11-20T07:46:10.084Z,938.43
2018-11-20T07:47:09.982Z,938.83
2018-11-20T07:48:09.896Z,938.42
2018-11-20T07:49:09.767Z,938.38
2018-11-20T07:50:09.667Z,938.56
2018-11-20T07:51:09.566Z,938.15
2018-11-20T07:52:09.461Z,938.40
2018-11-20T07:53:09.372Z,938.37
2018-11-20T07:54:09.253Z,938.67
2018-11-20T07:55:09.149Z,938.52
2018-11-20T07:56:09.176Z,938.82
2018-11-20T07:57:08.939Z,938.57
2018-11-20T07:58:08.853Z,938.73
2018-11-20T07:59:08.740Z,938.47
2018-11-20T08:00:08.630Z,938.47
2018-11-20T08:01:08.526Z,938.27
2018-11-20T08:02:08.464Z,938.34
2018-11-20T08:03:08.335Z,938.68
2018-11-20T08:04:08.210Z,938.54
2018-11-20T08:05:08.110Z,938.96
2018-11-20T08:06:08.007Z,938.60
2018-11-20T08:07:07.901Z,938.64
2018-11-20T08:08:07.812Z,938.53
2018-11-20T08:09:07.697Z,938.41
2018-11-20T08:10:07.645Z,938.76
2018-11-20T08:11:07.490Z,938.41
2018-11-20T08:12:07.382Z,938.51
2018-11-20T08:13:07.299Z,938.48
2018-11-20T08:14:07.177Z,938.36
2018-11-20T08:15:07.076Z,938.35
2018-11-20T08:16:07.027Z,938.40
2018-11-20T08:17:06.863Z,938.49
2018-11-20T08:18:06.777Z,938.59
2018-11-20T08:19:06.655Z,938.48
2018-11-20T08:20:06.555Z,938.37
2018-11-20T08:21:06.451Z,938.26
2018-11-20T08:22:06.350Z,938.45
2018-11-20T08:23:06.243Z,938.44
2018-11-20T08:24:06.156Z,938.46
2018-11-20T08:25:06.040Z,938.54
2018-11-20T08:26:06.049Z,938.40
2018-11-20T08:27:05.835Z,938.43
2018-11-20T08:28:05.729Z,938.39
2018-11-20T08:29:05.735Z,938.41
2018-11-20T08:30:05.529Z,938.36
2018-11-20T08:31:05.544Z,938.52
2018-11-20T08:32:05.310Z,938.99
2018-11-20T08:33:05.207Z,938.60
2018-11-20T08:34:05.138Z,938.61
2018-11-20T08:35:05.037Z,938.44
2018-11-20T08:36:04.993Z,938.66
2018-11-20T08:37:04.799Z,938.59
2018-11-20T08:38:04.692Z,938.69
2018-11-20T08:39:04.604Z,938.70
2018-11-20T08:40:04.482Z,938.43
2018-11-20T08:41:04.378Z,938.58
2018-11-20T08:42:04.312Z,938.55
2018-11-20T08:43:04.274Z,938.55
2018-11-20T08:44:04.081Z,938.37
2018-11-20T08:45:03.962Z,938.48
2018-11-20T08:46:03.864Z,938.62
2018-11-20T08:47:03.756Z,938.51
2018-11-20T08:48:03.658Z,938.47
2018-11-20T08:49:03.568Z,938.70
2018-11-20T08:50:03.545Z,938.57
2018-11-20T08:51:03.343Z,938.55
2018-11-20T08:52:03.238Z,938.48
2018-11-20T08:53:03.135Z,938.51
2018-11-20T08:54:03.050Z,938.57
2018-11-20T08:55:02.933Z,938.72
2018-11-20T08:56:02.822Z,938.58
2018-11-20T08:57:02.826Z,938.59
2018-11-20T08:58:02.622Z,938.52
2018-11-20T08:59:02.530Z,938.50
2018-11-20T09:00:02.413Z,938.46
2018-11-20T09:01:02.308Z,938.49
2018-11-20T09:02:02.203Z,938.55
2018-11-20T09:03:02.120Z,938.53
2018-11-20T09:04:02.118Z,938.54
2018-11-20T09:05:01.894Z,938.50
2018-11-20T09:06:01.790Z,938.45
2018-11-20T09:07:01.705Z,938.53
2018-11-20T09:08:01.585Z,938.55
2018-11-20T09:09:01.496Z,938.81
2018-11-20T09:10:01.470Z,938.61
2018-11-20T09:11:01.376Z,938.77
2018-11-20T09:12:01.175Z,938.74
2018-11-20T09:13:01.067Z,938.78
2018-11-20T09:14:00.979Z,938.60
2018-11-20T09:15:00.860Z,938.84
2018-11-20T09:16:00.774Z,938.66
2018-11-20T09:17:00.657Z,938.73
2018-11-20T09:18:00.787Z,938.62
2018-11-20T09:19:00.463Z,938.60
2018-11-20T09:20:00.348Z,938.78
2018-11-20T09:21:00.297Z,938.88
2018-11-20T09:22:00.137Z,938.70
2018-11-20T09:23:00.034Z,938.94
2018-11-20T09:23:59.950Z,938.68
2018-11-20T09:24:59.951Z,938.65
2018-11-20T09:25:59.723Z,938.63
2018-11-20T09:26:59.621Z,938.61
2018-11-20T09:27:59.579Z,938.73
2018-11-20T09:28:59.430Z,938.76
2018-11-20T09:29:59.310Z,938.61
2018-11-20T09:30:59.208Z,938.57
2018-11-20T09:31:59.218Z,938.48
2018-11-20T09:32:59.000Z,938.48
2018-11-20T09:33:58.911Z,938.59
2018-11-20T09:34:58.880Z,938.46
2018-11-20T09:35:58.689Z,938.59
2018-11-20T09:36:58.586Z,938.74
2018-11-20T09:37:58.485Z,938.41
2018-11-20T09:38:58.501Z,938.53
2018-11-20T09:39:58.279Z,938.57
2018-11-20T09:40:58.172Z,938.54
2018-11-20T09:41:58.069Z,938.56
2018-11-20T09:42:57.977Z,938.61
2018-11-20T09:43:57.877Z,938.46
2018-11-20T09:44:57.759Z,938.40
2018-11-20T09:45:57.660Z,938.36
2018-11-20T09:46:57.587Z,938.35
2018-11-20T09:47:57.450Z,938.46
2018-11-20T09:48:57.360Z,938.49
2018-11-20T09:49:57.242Z,938.47
2018-11-20T09:50:57.137Z,938.40
2018-11-20T09:51:57.053Z,938.39
2018-11-20T09:52:57.060Z,938.32
2018-11-20T09:53:56.845Z,938.20
2018-11-20T09:54:56.731Z,938.44
2018-11-20T09:55:56.630Z,938.41
2018-11-20T09:56:56.517Z,938.34
2018-11-20T09:57:56.414Z,938.51
2018-11-20T09:58:56.325Z,938.44
2018-11-20T09:59:56.290Z,938.36
2018-11-20T10:00:56.104Z,938.37
2018-11-20T10:01:56.101Z,938.42
2018-11-20T10:02:55.897Z,938.36
2018-11-20T10:03:55.880Z,938.35
2018-11-20T10:04:55.689Z,938.57
2018-11-20T10:05:55.588Z,938.50
2018-11-20T10:06:55.526Z,938.31
2018-11-20T10:07:55.381Z,938.24
2018-11-20T10:08:55.339Z,938.26
2018-11-20T10:09:55.190Z,938.21
2018-11-20T10:10:55.070Z,938.34
2018-11-20T10:11:54.966Z,938.32
2018-11-20T10:12:54.868Z,938.22
2018-11-20T10:13:54.805Z,938.13
2018-11-20T10:14:54.871Z,938.23
2018-11-20T10:15:54.556Z,938.22
2018-11-20T10:16:54.450Z,938.14
2018-11-20T10:17:54.349Z,938.10
2018-11-20T10:18:54.249Z,938.11
2018-11-20T10:19:54.161Z,938.17
2018-11-20T10:20:54.093Z,938.16
2018-11-20T10:21:53.942Z,938.15
2018-11-20T10:22:53.830Z,938.18
2018-11-20T10:23:53.815Z,938.18
2018-11-20T10:24:53.837Z,938.30
2018-11-20T10:25:53.693Z,938.17
2018-11-20T10:26:53.420Z,938.09
2018-11-20T10:27:53.314Z,938.19
2018-11-20T10:28:53.210Z,938.00
2018-11-20T10:29:53.125Z,937.95
2018-11-20T10:30:53.004Z,937.95
2018-11-20T10:31:52.899Z,937.92
2018-11-20T10:32:52.800Z,937.91
2018-11-20T10:33:52.696Z,937.95
2018-11-20T10:34:52.710Z,937.87
2018-11-20T10:35:52.488Z,937.74
2018-11-20T10:36:52.385Z,937.76
2018-11-20T10:37:52.286Z,937.73
2018-11-20T10:38:52.180Z,937.71
2018-11-20T10:39:52.090Z,937.74
2018-11-20T10:40:51.970Z,937.76
2018-11-20T10:41:51.869Z,937.62
2018-11-20T10:42:51.767Z,937.68
2018-11-20T10:43:51.660Z,937.57
2018-11-20T10:44:51.572Z,937.49
2018-11-20T10:45:51.474Z,937.57
2018-11-20T10:46:51.355Z,937.50
2018-11-20T10:47:51.248Z,937.46
2018-11-20T10:48:51.145Z,937.43
2018-11-20T10:49:51.059Z,937.39
2018-11-20T10:50:50.951Z,937.39
2018-11-20T10:51:50.836Z,937.45
2018-11-20T10:52:50.739Z,937.40
2018-11-20T10:53:50.632Z,937.34
2018-11-20T10:54:50.541Z,937.40
2018-11-20T10:55:50.421Z,937.36
2018-11-20T10:56:50.320Z,937.38
2018-11-20T10:57:50.218Z,937.42
2018-11-20T10:58:50.120Z,937.38
2018-11-20T10:59:50.093Z,937.37
2018-11-20T11:00:49.915Z,937.42
2018-11-20T11:01:49.909Z,937.42
2018-11-20T11:02:49.702Z,937.31
2018-11-20T11:03:49.598Z,937.59
2018-11-20T11:04:49.552Z,937.34
2018-11-20T11:05:49.396Z,937.42
2018-11-20T11:06:49.462Z,937.50
2018-11-20T11:07:49.310Z,937.43
2018-11-20T11:08:49.198Z,937.39
2018-11-20T11:09:48.996Z,937.47
2018-11-20T11:10:48.878Z,937.36
2018-11-20T11:11:48.818Z,937.32
2018-11-20T11:12:48.681Z,937.25
2018-11-20T11:13:48.565Z,937.33
2018-11-20T11:14:48.541Z,937.26
2018-11-20T11:15:48.466Z,937.33
2018-11-20T11:16:48.265Z,937.36
2018-11-20T11:17:48.157Z,937.32
2018-11-20T11:18:48.054Z,937.68
2018-11-20T11:19:47.968Z,937.42
2018-11-20T11:20:47.886Z,937.07
2018-11-20T11:21:47.751Z,937.42
2018-11-20T11:22:47.764Z,937.43
2018-11-20T11:23:47.541Z,937.30
2018-11-20T11:24:47.455Z,937.30
2018-11-20T11:25:47.348Z,937.44
2018-11-20T11:26:47.240Z,937.40
2018-11-20T11:27:47.129Z,937.40
2018-11-20T11:28:47.191Z,937.36
2018-11-20T11:29:46.942Z,937.40
2018-11-20T11:30:46.819Z,937.32
2018-11-20T11:31:46.718Z,937.40
2018-11-20T11:32:46.614Z,937.30
2018-11-20T11:33:46.517Z,937.29
2018-11-20T11:34:46.425Z,937.36
2018-11-20T11:35:46.309Z,937.43
2018-11-20T11:36:46.207Z,937.26
2018-11-20T11:37:46.399Z,937.37
2018-11-20T11:38:46.001Z,937.46
2018-11-20T11:39:45.911Z,937.59
2018-11-20T11:40:45.797Z,937.43
2018-11-20T11:41:45.692Z,937.32
2018-11-20T11:42:45.593Z,937.29
2018-11-20T11:43:45.487Z,937.46
2018-11-20T11:44:45.505Z,937.50
2018-11-20T11:45:45.280Z,937.26
2018-11-20T11:46:45.177Z,937.09
2018-11-20T11:47:45.075Z,937.39
2018-11-20T11:48:44.971Z,937.25
2018-11-20T11:49:44.886Z,937.37
2018-11-20T11:50:44.770Z,937.27
2018-11-20T11:51:44.770Z,937.36
2018-11-20T11:52:44.564Z,937.18
2018-11-20T11:53:44.462Z,937.30
2018-11-20T11:54:44.395Z,937.42
2018-11-20T11:55:44.269Z,937.50
2018-11-20T11:56:44.156Z,937.36
2018-11-20T11:57:44.070Z,937.27
2018-11-20T11:58:44.051Z,937.19
2018-11-20T11:59:43.849Z,937.12
2018-11-20T12:00:43.762Z,937.33
2018-11-20T12:03:43.436Z,937.18
2018-11-20T12:04:43.337Z,937.36
2018-11-20T12:05:43.253Z,937.26
2018-11-20T12:06:43.130Z,937.32
2018-11-20T12:07:47.039Z,937.26
2018-11-20T12:08:42.926Z,937.23
2018-11-20T12:09:42.829Z,937.21
2018-11-20T12:10:42.742Z,937.13
2018-11-20T12:11:42.723Z,937.15
2018-11-20T12:12:42.521Z,937.26
2018-11-20T12:13:42.423Z,937.03
2018-11-20T12:14:42.317Z,937.09
2018-11-20T12:15:42.230Z,937.09
2018-11-20T12:16:42.112Z,937.02
2018-11-20T12:17:42.014Z,937.02
2018-11-20T12:18:41.910Z,937.03
2018-11-20T12:19:41.806Z,936.98
2018-11-20T12:20:43.409Z,936.97
2018-11-20T12:21:41.606Z,936.97
2018-11-20T12:22:41.502Z,937.04
2018-11-20T12:23:41.399Z,936.94
2018-11-20T12:24:41.297Z,937.03
2018-11-20T12:25:41.214Z,937.03
2018-11-20T12:26:41.099Z,937.00
2018-11-20T12:27:41.047Z,937.04
2018-11-20T12:28:40.894Z,937.03
2018-11-20T12:29:40.791Z,937.48